sensor_id;sensor_type;location;lat;lon;timestamp;pressure;altitude;pressure_sealevel;temperature;humidity
3082;BME280;1551;51.046;7.010;2023-04-22T00:01:49;100178.25;;;11.55;90.22
3082;BME280;1551;51.046;7.010;2023-04-22T00:04:38;100174.84;;;11.54;90.28
3082;BME280;1551;51.046;7.010;2023-04-22T00:07:29;100169.09;;;11.43;91.38
3082;BME280;1551;51.046;7.010;2023-04-22T00:10:18;100176.09;;;11.35;91.90
3082;BME280;1551;51.046;7.010;2023-04-22T00:13:07;100172.88;;;11.27;91.90
3082;BME280;1551;51.046;7.010;2023-04-22T00:15:56;100177.22;;;11.24;91.46
3082;BME280;1551;51.046;7.010;2023-04-22T00:18:45;100179.50;;;11.36;91.84
3082;BME280;1551;51.046;7.010;2023-04-22T00:21:34;100176.09;;;11.35;91.20
3082;BME280;1551;51.046;7.010;2023-04-22T00:24:24;100165.63;;;11.46;91.09
3082;BME280;1551;51.046;7.010;2023-04-22T00:27:13;100166.34;;;11.52;90.35
3082;BME280;1551;51.046;7.010;2023-04-22T00:30:04;100161.38;;;11.46;90.32
3082;BME280;1551;51.046;7.010;2023-04-22T00:32:53;100176.53;;;11.55;90.50
3082;BME280;1551;51.046;7.010;2023-04-22T00:35:43;100167.19;;;11.51;89.71
3082;BME280;1551;51.046;7.010;2023-04-22T00:38:33;100163.84;;;11.49;90.63
3082;BME280;1551;51.046;7.010;2023-04-22T00:41:23;100172.41;;;11.48;90.56
3082;BME280;1551;51.046;7.010;2023-04-22T00:44:12;100156.94;;;11.51;90.54
3082;BME280;1551;51.046;7.010;2023-04-22T00:47:01;100166.41;;;11.49;89.36
3082;BME280;1551;51.046;7.010;2023-04-22T00:49:52;100166.56;;;11.42;90.11
3082;BME280;1551;51.046;7.010;2023-04-22T00:52:41;100170.06;;;11.38;91.36
3082;BME280;1551;51.046;7.010;2023-04-22T00:55:31;100171.72;;;11.40;91.32
3082;BME280;1551;51.046;7.010;2023-04-22T00:58:22;100164.19;;;11.34;90.92
3082;BME280;1551;51.046;7.010;2023-04-22T01:01:14;100166.56;;;11.42;91.43
3082;BME280;1551;51.046;7.010;2023-04-22T01:04:04;100181.22;;;11.37;89.73
3082;BME280;1551;51.046;7.010;2023-04-22T01:06:53;100168.50;;;11.32;91.17
3082;BME280;1551;51.046;7.010;2023-04-22T01:09:42;100172.69;;;11.36;91.18
3082;BME280;1551;51.046;7.010;2023-04-22T01:12:31;100164.00;;;11.42;90.89
3082;BME280;1551;51.046;7.010;2023-04-22T01:15:20;100169.00;;;11.48;90.80
3082;BME280;1551;51.046;7.010;2023-04-22T01:18:08;100169.13;;;11.42;90.01
3082;BME280;1551;51.046;7.010;2023-04-22T01:20:57;100176.03;;;11.38;90.13
3082;BME280;1551;51.046;7.010;2023-04-22T01:23:47;100171.88;;;11.34;89.90
3082;BME280;1551;51.046;7.010;2023-04-22T01:26:36;100170.22;;;11.30;91.02
3082;BME280;1551;51.046;7.010;2023-04-22T01:29:25;100168.50;;;11.32;90.99
3082;BME280;1551;51.046;7.010;2023-04-22T01:32:15;100165.00;;;11.35;90.57
3082;BME280;1551;51.046;7.010;2023-04-22T01:35:04;100166.66;;;11.37;90.60
3082;BME280;1551;51.046;7.010;2023-04-22T01:37:53;100173.59;;;11.34;90.36
3082;BME280;1551;51.046;7.010;2023-04-22T01:40:42;100170.31;;;11.27;89.95
3082;BME280;1551;51.046;7.010;2023-04-22T01:43:31;100172.13;;;11.21;89.55
3082;BME280;1551;51.046;7.010;2023-04-22T01:46:20;100172.25;;;11.16;89.46
3082;BME280;1551;51.046;7.010;2023-04-22T01:49:09;100173.09;;;11.17;90.13
3082;BME280;1551;51.046;7.010;2023-04-22T01:51:58;100171.38;;;11.17;89.52
3082;BME280;1551;51.046;7.010;2023-04-22T01:54:47;100161.84;;;11.24;89.70
3082;BME280;1551;51.046;7.010;2023-04-22T01:57:36;100160.94;;;11.26;89.22
3082;BME280;1551;51.046;7.010;2023-04-22T02:00:25;100165.25;;;11.24;89.24
3082;BME280;1551;51.046;7.010;2023-04-22T02:03:15;100165.25;;;11.24;89.10
3082;BME280;1551;51.046;7.010;2023-04-22T02:06:04;100159.28;;;11.25;89.23
3082;BME280;1551;51.046;7.010;2023-04-22T02:08:53;100161.91;;;11.21;89.73
3082;BME280;1551;51.046;7.010;2023-04-22T02:11:42;100163.59;;;11.22;89.58
3082;BME280;1551;51.046;7.010;2023-04-22T02:14:31;100158.47;;;11.22;89.64
3082;BME280;1551;51.046;7.010;2023-04-22T02:17:25;100155.09;;;11.20;90.11
3082;BME280;1551;51.046;7.010;2023-04-22T02:20:14;100148.16;;;11.25;89.95
3082;BME280;1551;51.046;7.010;2023-04-22T02:23:03;100143.03;;;11.25;90.01
3082;BME280;1551;51.046;7.010;2023-04-22T02:25:54;100134.44;;;11.27;90.10
3082;BME280;1551;51.046;7.010;2023-04-22T02:28:43;100134.25;;;11.36;90.04
3082;BME280;1551;51.046;7.010;2023-04-22T02:31:32;100130.84;;;11.36;89.31
3082;BME280;1551;51.046;7.010;2023-04-22T02:34:22;100129.06;;;11.39;89.49
3082;BME280;1551;51.046;7.010;2023-04-22T02:37:11;100125.72;;;11.36;89.33
3082;BME280;1551;51.046;7.010;2023-04-22T02:39:59;100132.63;;;11.32;89.71
3082;BME280;1551;51.046;7.010;2023-04-22T02:42:49;100130.84;;;11.36;89.46
3082;BME280;1551;51.046;7.010;2023-04-22T02:45:38;100139.53;;;11.29;89.43
3082;BME280;1551;51.046;7.010;2023-04-22T02:48:29;100138.66;;;11.30;89.82
3082;BME280;1551;51.046;7.010;2023-04-22T02:51:18;100142.06;;;11.30;90.14
3082;BME280;1551;51.046;7.010;2023-04-22T02:54:07;100135.97;;;11.36;90.00
3082;BME280;1551;51.046;7.010;2023-04-22T02:56:56;100130.63;;;11.45;90.00
3082;BME280;1551;51.046;7.010;2023-04-22T02:59:45;100128.81;;;11.50;89.08
3082;BME280;1551;51.046;7.010;2023-04-22T03:02:37;100129.63;;;11.52;89.35
3082;BME280;1551;51.046;7.010;2023-04-22T03:05:33;100120.97;;;11.56;89.02
3082;BME280;1551;51.046;7.010;2023-04-22T03:08:24;100112.47;;;11.54;89.05
3082;BME280;1551;51.046;7.010;2023-04-22T03:11:13;100114.97;;;11.57;89.24
3082;BME280;1551;51.046;7.010;2023-04-22T03:14:04;100115.72;;;11.62;89.37
3082;BME280;1551;51.046;7.010;2023-04-22T03:16:53;100102.97;;;11.59;89.40
3082;BME280;1551;51.046;7.010;2023-04-22T03:19:42;100102.06;;;11.61;89.50
3082;BME280;1551;51.046;7.010;2023-04-22T03:22:31;100106.31;;;11.62;89.96
3082;BME280;1551;51.046;7.010;2023-04-22T03:25:23;100101.06;;;11.68;89.75
3082;BME280;1551;51.046;7.010;2023-04-22T03:28:15;100102.72;;;11.71;89.29
3082;BME280;1551;51.046;7.010;2023-04-22T03:31:04;100106.25;;;11.64;89.87
3082;BME280;1551;51.046;7.010;2023-04-22T03:33:53;100099.53;;;11.60;89.57
3082;BME280;1551;51.046;7.010;2023-04-22T03:36:49;100097.59;;;11.71;89.60
3082;BME280;1551;51.046;7.010;2023-04-22T03:39:38;100099.97;;;11.79;89.22
3082;BME280;1551;51.046;7.010;2023-04-22T03:42:28;100089.72;;;11.77;89.74
3082;BME280;1551;51.046;7.010;2023-04-22T03:45:17;100098.16;;;11.82;89.30
3082;BME280;1551;51.046;7.010;2023-04-22T03:48:10;100093.81;;;11.86;88.86
3082;BME280;1551;51.046;7.010;2023-04-22T03:51:05;100097.25;;;11.85;88.65
3082;BME280;1551;51.046;7.010;2023-04-22T03:53:58;100093.56;;;11.95;88.42
3082;BME280;1551;51.046;7.010;2023-04-22T03:56:52;100096.88;;;11.98;88.06
3082;BME280;1551;51.046;7.010;2023-04-22T03:59:42;100086.56;;;12.01;87.38
3082;BME280;1551;51.046;7.010;2023-04-22T04:02:33;100082.22;;;12.03;87.02
3082;BME280;1551;51.046;7.010;2023-04-22T04:05:24;100072.81;;;12.04;86.83
3082;BME280;1551;51.046;7.010;2023-04-22T04:08:12;100076.38;;;11.98;86.49
3082;BME280;1551;51.046;7.010;2023-04-22T04:11:01;100076.44;;;11.97;87.05
3082;BME280;1551;51.046;7.010;2023-04-22T04:13:51;100074.03;;;11.91;86.67
3082;BME280;1551;51.046;7.010;2023-04-22T04:17:03;100071.72;;;11.80;87.69
3082;BME280;1551;51.046;7.010;2023-04-22T04:19:54;100068.19;;;11.84;88.58
3082;BME280;1551;51.046;7.010;2023-04-22T04:22:44;100063.88;;;11.86;88.65
3082;BME280;1551;51.046;7.010;2023-04-22T04:25:34;100062.75;;;11.96;88.36
3082;BME280;1551;51.046;7.010;2023-04-22T04:28:28;100072.81;;;12.04;87.89
3082;BME280;1551;51.046;7.010;2023-04-22T04:31:21;100063.66;;;11.94;87.62
3082;BME280;1551;51.046;7.010;2023-04-22T04:34:12;100050.72;;;11.98;88.15
3082;BME280;1551;51.046;7.010;2023-04-22T04:37:02;100054.16;;;11.99;87.62
3082;BME280;1551;51.046;7.010;2023-04-22T04:40:01;100046.44;;;12.00;87.71
3082;BME280;1551;51.046;7.010;2023-04-22T04:43:02;100045.41;;;12.06;87.46
3082;BME280;1551;51.046;7.010;2023-04-22T04:46:00;100047.78;;;12.13;87.38
3082;BME280;1551;51.046;7.010;2023-04-22T04:48:55;100056.19;;;12.18;87.25
3082;BME280;1551;51.046;7.010;2023-04-22T04:51:48;100048.44;;;12.20;86.98
3082;BME280;1551;51.046;7.010;2023-04-22T04:54:37;100046.69;;;12.22;86.95
3082;BME280;1551;51.046;7.010;2023-04-22T04:57:27;100044.84;;;12.27;86.21
3082;BME280;1551;51.046;7.010;2023-04-22T05:00:18;100043.84;;;12.31;85.95
3082;BME280;1551;51.046;7.010;2023-04-22T05:03:08;100053.19;;;12.33;85.63
3082;BME280;1551;51.046;7.010;2023-04-22T05:05:56;100043.84;;;12.32;85.78
3082;BME280;1551;51.046;7.010;2023-04-22T05:08:46;100044.56;;;12.36;85.75
3082;BME280;1551;51.046;7.010;2023-04-22T05:11:35;100035.09;;;12.38;85.95
3082;BME280;1551;51.046;7.010;2023-04-22T05:14:32;100039.31;;;12.40;85.76
3082;BME280;1551;51.046;7.010;2023-04-22T05:17:21;100042.72;;;12.41;85.88
3082;BME280;1551;51.046;7.010;2023-04-22T05:20:11;100030.81;;;12.38;85.53
3082;BME280;1551;51.046;7.010;2023-04-22T05:23:01;100050.22;;;12.49;86.01
3082;BME280;1551;51.046;7.010;2023-04-22T05:25:50;100052.59;;;12.55;85.78
3082;BME280;1551;51.046;7.010;2023-04-22T05:28:38;100046.38;;;12.63;85.64
3082;BME280;1551;51.046;7.010;2023-04-22T05:31:27;100063.38;;;12.67;85.68
3082;BME280;1551;51.046;7.010;2023-04-22T05:34:17;100060.72;;;12.70;85.05
3082;BME280;1551;51.046;7.010;2023-04-22T05:37:06;100055.31;;;12.79;84.69
3082;BME280;1551;51.046;7.010;2023-04-22T05:39:58;100050.66;;;12.92;84.16
3082;BME280;1551;51.046;7.010;2023-04-22T05:42:48;100053.75;;;13.03;83.31
3082;BME280;1551;51.046;7.010;2023-04-22T05:45:37;100054.94;;;13.21;83.08
3082;BME280;1551;51.046;7.010;2023-04-22T05:48:28;100056.28;;;13.32;82.51
3082;BME280;1551;51.046;7.010;2023-04-22T05:51:21;100049.88;;;13.45;81.95
3082;BME280;1551;51.046;7.010;2023-04-22T05:54:12;100053.16;;;13.50;81.30
3082;BME280;1551;51.046;7.010;2023-04-22T05:57:01;100061.53;;;13.55;80.84
3082;BME280;1551;51.046;7.010;2023-04-22T05:59:50;100064.00;;;13.58;80.77
3082;BME280;1551;51.046;7.010;2023-04-22T06:02:39;100062.88;;;13.67;80.58
3082;BME280;1551;51.046;7.010;2023-04-22T06:05:29;100060.22;;;13.70;79.98
3082;BME280;1551;51.046;7.010;2023-04-22T06:08:19;100064.47;;;13.71;79.43
3082;BME280;1551;51.046;7.010;2023-04-22T06:11:12;100061.59;;;13.80;79.45
3082;BME280;1551;51.046;7.010;2023-04-22T06:14:01;100062.91;;;13.92;79.05
3082;BME280;1551;51.046;7.010;2023-04-22T06:16:50;100068.69;;;13.98;78.74
3082;BME280;1551;51.046;7.010;2023-04-22T06:19:40;100059.94;;;14.04;77.89
3082;BME280;1551;51.046;7.010;2023-04-22T06:22:29;100062.38;;;14.07;77.69
3082;BME280;1551;51.046;7.010;2023-04-22T06:25:18;100057.19;;;14.08;77.43
3082;BME280;1551;51.046;7.010;2023-04-22T06:28:07;100058.84;;;14.09;76.77
3082;BME280;1551;51.046;7.010;2023-04-22T06:30:57;100058.97;;;14.06;76.71
3082;BME280;1551;51.046;7.010;2023-04-22T06:33:46;100054.19;;;14.20;76.58
3082;BME280;1551;51.046;7.010;2023-04-22T06:36:35;100051.44;;;14.50;76.20
3082;BME280;1551;51.046;7.010;2023-04-22T06:39:28;100047.56;;;14.84;74.66
3082;BME280;1551;51.046;7.010;2023-04-22T06:42:51;100058.09;;;15.23;73.38
3082;BME280;1551;51.046;7.010;2023-04-22T06:46:05;100048.22;;;15.56;72.27
3082;BME280;1551;51.046;7.010;2023-04-22T06:49:02;100050.38;;;15.87;69.96
3082;BME280;1551;51.046;7.010;2023-04-22T06:52:11;100045.44;;;16.21;68.79
3082;BME280;1551;51.046;7.010;2023-04-22T06:55:02;100038.53;;;16.60;67.10
3082;BME280;1551;51.046;7.010;2023-04-22T06:57:52;100039.94;;;16.86;65.33
3082;BME280;1551;51.046;7.010;2023-04-22T07:00:41;100046.66;;;17.26;64.79
3082;BME280;1551;51.046;7.010;2023-04-22T07:03:31;100047.06;;;17.35;62.77
3082;BME280;1551;51.046;7.010;2023-04-22T07:06:28;100044.09;;;17.26;63.03
3082;BME280;1551;51.046;7.010;2023-04-22T07:09:19;100043.41;;;17.22;62.54
3082;BME280;1551;51.046;7.010;2023-04-22T07:12:09;100043.13;;;17.09;63.41
3082;BME280;1551;51.046;7.010;2023-04-22T07:15:00;100034.38;;;16.95;63.10
3082;BME280;1551;51.046;7.010;2023-04-22T07:17:49;100038.84;;;16.73;63.87
3082;BME280;1551;51.046;7.010;2023-04-22T07:20:38;100035.81;;;16.63;63.60
3082;BME280;1551;51.046;7.010;2023-04-22T07:23:27;100037.28;;;17.06;63.69
3082;BME280;1551;51.046;7.010;2023-04-22T07:26:16;100039.16;;;17.57;62.30
3082;BME280;1551;51.046;7.010;2023-04-22T07:29:05;100036.56;;;17.91;60.49
3082;BME280;1551;51.046;7.010;2023-04-22T07:31:54;100027.91;;;18.08;59.29
3082;BME280;1551;51.046;7.010;2023-04-22T07:34:43;100028.41;;;18.31;58.77
3082;BME280;1551;51.046;7.010;2023-04-22T07:37:32;100033.72;;;18.45;58.09
3082;BME280;1551;51.046;7.010;2023-04-22T07:40:21;100029.75;;;18.38;57.39
3082;BME280;1551;51.046;7.010;2023-04-22T07:43:10;100029.59;;;18.74;56.37
3082;BME280;1551;51.046;7.010;2023-04-22T07:45:59;100027.34;;;18.99;55.06
3082;BME280;1551;51.046;7.010;2023-04-22T07:48:48;100026.81;;;19.24;54.73
3082;BME280;1551;51.046;7.010;2023-04-22T07:51:37;100029.81;;;19.48;53.83
3082;BME280;1551;51.046;7.010;2023-04-22T07:54:25;100019.75;;;19.57;53.11
3082;BME280;1551;51.046;7.010;2023-04-22T07:57:14;100020.44;;;19.75;53.24
3082;BME280;1551;51.046;7.010;2023-04-22T08:00:05;100015.66;;;19.97;52.38
3082;BME280;1551;51.046;7.010;2023-04-22T08:03:01;100012.84;;;20.00;52.78
3082;BME280;1551;51.046;7.010;2023-04-22T08:05:51;100017.34;;;20.54;52.18
3082;BME280;1551;51.046;7.010;2023-04-22T08:08:40;100018.91;;;20.71;50.48
3082;BME280;1551;51.046;7.010;2023-04-22T08:11:29;100032.06;;;20.82;49.72
3082;BME280;1551;51.046;7.010;2023-04-22T08:14:18;100014.63;;;20.70;49.29
3082;BME280;1551;51.046;7.010;2023-04-22T08:17:07;100010.47;;;20.68;48.66
3082;BME280;1551;51.046;7.010;2023-04-22T08:19:56;100004.50;;;20.66;48.88
3082;BME280;1551;51.046;7.010;2023-04-22T08:22:45;99991.72;;;20.63;48.85
3082;BME280;1551;51.046;7.010;2023-04-22T08:25:34;99983.84;;;20.36;49.08
3082;BME280;1551;51.046;7.010;2023-04-22T08:28:23;99991.03;;;20.73;48.54
3082;BME280;1551;51.046;7.010;2023-04-22T08:31:12;99984.91;;;21.01;47.45
3082;BME280;1551;51.046;7.010;2023-04-22T08:34:01;99987.25;;;21.32;47.19
3082;BME280;1551;51.046;7.010;2023-04-22T08:36:50;99988.47;;;21.27;46.53
3082;BME280;1551;51.046;7.010;2023-04-22T08:39:39;99989.25;;;21.41;45.97
3082;BME280;1551;51.046;7.010;2023-04-22T08:42:29;99988.16;;;21.31;45.80
3082;BME280;1551;51.046;7.010;2023-04-22T08:45:19;99982.81;;;21.20;46.09
3082;BME280;1551;51.046;7.010;2023-04-22T08:48:10;99983.00;;;21.04;45.72
3082;BME280;1551;51.046;7.010;2023-04-22T08:51:00;99981.19;;;20.78;46.09
3082;BME280;1551;51.046;7.010;2023-04-22T08:53:49;99981.44;;;20.88;46.38
3082;BME280;1551;51.046;7.010;2023-04-22T08:56:43;99967.38;;;21.04;46.01
3082;BME280;1551;51.046;7.010;2023-04-22T08:59:33;99966.44;;;20.91;45.89
3082;BME280;1551;51.046;7.010;2023-04-22T09:02:23;99962.97;;;21.19;45.39
3082;BME280;1551;51.046;7.010;2023-04-22T09:05:13;99962.59;;;21.38;45.49
3082;BME280;1551;51.046;7.010;2023-04-22T09:08:03;99973.22;;;21.60;44.50
3082;BME280;1551;51.046;7.010;2023-04-22T09:10:52;99967.00;;;21.75;44.24
3082;BME280;1551;51.046;7.010;2023-04-22T09:13:41;99953.47;;;21.95;43.46
3082;BME280;1551;51.046;7.010;2023-04-22T09:16:31;99955.03;;;21.98;43.48
3082;BME280;1551;51.046;7.010;2023-04-22T09:19:22;99951.47;;;22.24;43.14
3082;BME280;1551;51.046;7.010;2023-04-22T09:22:12;99946.69;;;22.54;42.50
3082;BME280;1551;51.046;7.010;2023-04-22T09:25:04;99951.41;;;22.49;42.42
3082;BME280;1551;51.046;7.010;2023-04-22T09:27:55;99949.97;;;22.32;42.81
3082;BME280;1551;51.046;7.010;2023-04-22T09:30:45;99942.38;;;22.78;41.72
3082;BME280;1551;51.046;7.010;2023-04-22T09:33:37;99958.25;;;22.99;41.27
3082;BME280;1551;51.046;7.010;2023-04-22T09:36:27;99943.88;;;23.28;41.24
3082;BME280;1551;51.046;7.010;2023-04-22T09:39:17;99950.81;;;23.40;40.83
3082;BME280;1551;51.046;7.010;2023-04-22T09:42:05;99959.22;;;23.78;40.29
3082;BME280;1551;51.046;7.010;2023-04-22T09:44:54;99955.56;;;24.03;40.07
3082;BME280;1551;51.046;7.010;2023-04-22T09:47:45;99949.88;;;24.20;39.80
3082;BME280;1551;51.046;7.010;2023-04-22T09:50:34;99952.50;;;24.09;39.56
3082;BME280;1551;51.046;7.010;2023-04-22T09:53:24;99951.06;;;24.49;39.21
3082;BME280;1551;51.046;7.010;2023-04-22T09:56:13;99952.09;;;24.58;39.24
3082;BME280;1551;51.046;7.010;2023-04-22T09:59:05;99945.38;;;24.98;38.54
3082;BME280;1551;51.046;7.010;2023-04-22T10:01:56;99957.41;;;25.74;37.14
3082;BME280;1551;51.046;7.010;2023-04-22T10:04:46;99952.00;;;25.75;36.27
3082;BME280;1551;51.046;7.010;2023-04-22T10:07:35;99957.22;;;25.96;36.77
3082;BME280;1551;51.046;7.010;2023-04-22T10:10:25;99953.66;;;25.97;36.33
3082;BME280;1551;51.046;7.010;2023-04-22T10:13:14;99944.59;;;26.50;35.19
3082;BME280;1551;51.046;7.010;2023-04-22T10:16:04;99946.75;;;26.85;35.11
3082;BME280;1551;51.046;7.010;2023-04-22T10:18:54;99955.75;;;27.31;34.24
3082;BME280;1551;51.046;7.010;2023-04-22T10:22:01;99957.28;;;27.04;34.26
3082;BME280;1551;51.046;7.010;2023-04-22T10:24:51;99959.78;;;26.37;34.85
3082;BME280;1551;51.046;7.010;2023-04-22T10:27:52;99955.28;;;25.47;36.14
3082;BME280;1551;51.046;7.010;2023-04-22T10:30:41;99953.53;;;26.08;35.70
3082;BME280;1551;51.046;7.010;2023-04-22T10:36:22;99955.28;;;25.68;37.46
3082;BME280;1551;51.046;7.010;2023-04-22T10:39:14;99958.91;;;25.56;36.94
3082;BME280;1551;51.046;7.010;2023-04-22T10:42:09;99941.97;;;26.50;35.96
3082;BME280;1551;51.046;7.010;2023-04-22T10:45:00;99951.31;;;27.50;34.41
3082;BME280;1551;51.046;7.010;2023-04-22T10:47:49;99954.94;;;27.40;33.67
3082;BME280;1551;51.046;7.010;2023-04-22T10:50:38;99953.00;;;26.94;34.23
3082;BME280;1551;51.046;7.010;2023-04-22T10:53:35;99952.97;;;27.70;33.56
3082;BME280;1551;51.046;7.010;2023-04-22T10:56:25;99951.63;;;28.85;32.17
3082;BME280;1551;51.046;7.010;2023-04-22T10:59:15;99952.16;;;29.06;31.16
3082;BME280;1551;51.046;7.010;2023-04-22T11:02:05;99960.63;;;29.53;30.84
3082;BME280;1551;51.046;7.010;2023-04-22T11:05:18;99965.25;;;28.80;31.05
3082;BME280;1551;51.046;7.010;2023-04-22T11:08:17;99955.47;;;26.86;32.96
3082;BME280;1551;51.046;7.010;2023-04-22T11:11:09;99948.38;;;25.46;35.09
3082;BME280;1551;51.046;7.010;2023-04-22T11:13:58;99966.97;;;25.11;35.78
3082;BME280;1551;51.046;7.010;2023-04-22T11:16:50;99969.25;;;24.18;36.88
3082;BME280;1551;51.046;7.010;2023-04-22T11:19:39;99966.50;;;24.64;36.55
3082;BME280;1551;51.046;7.010;2023-04-22T11:22:36;99961.53;;;24.49;36.72
3082;BME280;1551;51.046;7.010;2023-04-22T11:25:26;99962.13;;;25.59;35.32
3082;BME280;1551;51.046;7.010;2023-04-22T11:28:14;99958.69;;;25.27;35.76
3082;BME280;1551;51.046;7.010;2023-04-22T11:31:07;99970.22;;;24.50;37.08
3082;BME280;1551;51.046;7.010;2023-04-22T11:33:59;99961.63;;;23.92;37.87
3082;BME280;1551;51.046;7.010;2023-04-22T11:36:48;99969.00;;;23.42;38.84
3082;BME280;1551;51.046;7.010;2023-04-22T11:39:37;99970.25;;;23.01;39.26
3082;BME280;1551;51.046;7.010;2023-04-22T11:42:27;99968.41;;;22.91;40.18
3082;BME280;1551;51.046;7.010;2023-04-22T11:45:17;99969.56;;;22.87;40.27
3082;BME280;1551;51.046;7.010;2023-04-22T11:48:08;99972.44;;;23.42;39.59
3082;BME280;1551;51.046;7.010;2023-04-22T11:51:08;99971.50;;;22.96;39.96
3082;BME280;1551;51.046;7.010;2023-04-22T11:53:59;99963.81;;;22.94;40.48
3082;BME280;1551;51.046;7.010;2023-04-22T11:56:48;99967.59;;;23.14;40.22
3082;BME280;1551;51.046;7.010;2023-04-22T11:59:37;99967.69;;;23.82;38.75
3082;BME280;1551;51.046;7.010;2023-04-22T12:02:26;99967.81;;;25.12;37.87
3082;BME280;1551;51.046;7.010;2023-04-22T12:05:15;99974.31;;;26.11;35.66
3082;BME280;1551;51.046;7.010;2023-04-22T12:08:17;99963.53;;;26.44;35.30
3082;BME280;1551;51.046;7.010;2023-04-22T12:11:08;99962.91;;;26.31;35.72
3082;BME280;1551;51.046;7.010;2023-04-22T12:14:05;99973.59;;;25.88;36.36
3082;BME280;1551;51.046;7.010;2023-04-22T12:16:54;99973.84;;;26.06;36.54
3082;BME280;1551;51.046;7.010;2023-04-22T12:19:46;99976.84;;;26.22;35.56
3082;BME280;1551;51.046;7.010;2023-04-22T12:22:35;99969.69;;;26.34;35.52
3082;BME280;1551;51.046;7.010;2023-04-22T12:25:25;99969.63;;;25.94;35.73
3082;BME280;1551;51.046;7.010;2023-04-22T12:28:15;99976.50;;;25.44;36.83
3082;BME280;1551;51.046;7.010;2023-04-22T12:31:04;99975.88;;;25.52;36.70
3082;BME280;1551;51.046;7.010;2023-04-22T12:33:54;99968.97;;;24.87;37.76
3082;BME280;1551;51.046;7.010;2023-04-22T12:36:43;99995.09;;;24.33;39.33
3082;BME280;1551;51.046;7.010;2023-04-22T12:39:32;99957.22;;;23.93;39.93
3082;BME280;1551;51.046;7.010;2023-04-22T12:42:21;99982.91;;;23.99;40.43
3082;BME280;1551;51.046;7.010;2023-04-22T12:45:10;99966.91;;;24.26;39.54
3082;BME280;1551;51.046;7.010;2023-04-22T12:47:59;99965.69;;;24.41;40.08
3082;BME280;1551;51.046;7.010;2023-04-22T12:50:48;99968.03;;;24.55;39.93
3082;BME280;1551;51.046;7.010;2023-04-22T12:53:37;99968.66;;;24.36;39.87
3082;BME280;1551;51.046;7.010;2023-04-22T12:56:27;99959.97;;;24.03;40.41
3082;BME280;1551;51.046;7.010;2023-04-22T12:59:16;99975.34;;;24.18;40.29
3082;BME280;1551;51.046;7.010;2023-04-22T13:02:05;99964.47;;;23.89;41.05
3082;BME280;1551;51.046;7.010;2023-04-22T13:04:53;99961.91;;;24.12;40.75
3082;BME280;1551;51.046;7.010;2023-04-22T13:07:43;99969.34;;;23.94;41.26
3082;BME280;1551;51.046;7.010;2023-04-22T13:10:32;99966.91;;;24.15;41.25
3082;BME280;1551;51.046;7.010;2023-04-22T13:13:22;99960.66;;;23.71;41.46
3082;BME280;1551;51.046;7.010;2023-04-22T13:16:11;99964.53;;;23.31;41.84
3082;BME280;1551;51.046;7.010;2023-04-22T13:19:00;99960.66;;;23.02;42.74
3082;BME280;1551;51.046;7.010;2023-04-22T13:21:49;99962.91;;;22.83;43.33
3082;BME280;1551;51.046;7.010;2023-04-22T13:24:38;99963.06;;;22.56;43.98
3082;BME280;1551;51.046;7.010;2023-04-22T13:27:27;99964.13;;;22.66;44.39
3082;BME280;1551;51.046;7.010;2023-04-22T13:30:16;99965.91;;;22.53;44.60
3082;BME280;1551;51.046;7.010;2023-04-22T13:33:06;99959.28;;;22.36;44.88
3082;BME280;1551;51.046;7.010;2023-04-22T13:35:55;99966.06;;;22.39;45.14
3082;BME280;1551;51.046;7.010;2023-04-22T13:38:44;99973.56;;;22.18;45.87
3082;BME280;1551;51.046;7.010;2023-04-22T13:41:33;99982.97;;;21.96;46.06
3082;BME280;1551;51.046;7.010;2023-04-22T13:44:23;99981.25;;;21.57;46.92
3082;BME280;1551;51.046;7.010;2023-04-22T13:47:11;99981.38;;;21.16;48.67
3082;BME280;1551;51.046;7.010;2023-04-22T13:50:00;99980.28;;;21.06;50.38
3082;BME280;1551;51.046;7.010;2023-04-22T13:52:50;99984.69;;;20.77;51.79
3082;BME280;1551;51.046;7.010;2023-04-22T13:55:38;99985.09;;;20.71;53.81
3082;BME280;1551;51.046;7.010;2023-04-22T13:58:28;99996.25;;;20.59;54.63
3082;BME280;1551;51.046;7.010;2023-04-22T14:01:17;99988.59;;;20.43;55.73
3082;BME280;1551;51.046;7.010;2023-04-22T14:04:06;99987.09;;;20.53;56.62
3082;BME280;1551;51.046;7.010;2023-04-22T14:06:55;99989.50;;;20.56;57.50
3082;BME280;1551;51.046;7.010;2023-04-22T14:09:44;99979.69;;;20.33;58.79
3082;BME280;1551;51.046;7.010;2023-04-22T14:12:33;99975.44;;;20.32;59.06
3082;BME280;1551;51.046;7.010;2023-04-22T14:15:23;99971.50;;;20.11;60.08
3082;BME280;1551;51.046;7.010;2023-04-22T14:18:12;99974.16;;;19.96;60.81
3082;BME280;1551;51.046;7.010;2023-04-22T14:21:03;99975.47;;;20.03;62.06
3082;BME280;1551;51.046;7.010;2023-04-22T14:23:54;99971.78;;;20.07;61.68
3082;BME280;1551;51.046;7.010;2023-04-22T14:26:43;99971.13;;;20.17;62.17
3082;BME280;1551;51.046;7.010;2023-04-22T14:29:32;99968.81;;;20.27;63.05
3082;BME280;1551;51.046;7.010;2023-04-22T14:32:21;99961.47;;;20.19;63.47
3082;BME280;1551;51.046;7.010;2023-04-22T14:35:10;99974.66;;;20.30;65.30
3082;BME280;1551;51.046;7.010;2023-04-22T14:37:59;99973.09;;;20.42;66.34
3082;BME280;1551;51.046;7.010;2023-04-22T14:40:49;99972.16;;;20.43;66.98
3082;BME280;1551;51.046;7.010;2023-04-22T14:43:38;99976.59;;;20.41;65.64
3082;BME280;1551;51.046;7.010;2023-04-22T14:46:26;99979.22;;;20.41;64.62
3082;BME280;1551;51.046;7.010;2023-04-22T14:49:15;99980.97;;;20.40;64.25
3082;BME280;1551;51.046;7.010;2023-04-22T14:52:04;99973.84;;;20.30;62.70
3082;BME280;1551;51.046;7.010;2023-04-22T14:54:54;99972.88;;;20.17;63.64
3082;BME280;1551;51.046;7.010;2023-04-22T14:57:43;99976.78;;;20.10;63.45
3082;BME280;1551;51.046;7.010;2023-04-22T15:00:32;99970.28;;;20.03;62.21
3082;BME280;1551;51.046;7.010;2023-04-22T15:03:21;99978.91;;;20.03;61.30
3082;BME280;1551;51.046;7.010;2023-04-22T15:06:10;99978.63;;;20.08;61.83
3082;BME280;1551;51.046;7.010;2023-04-22T15:08:59;99974.38;;;20.07;61.68
3082;BME280;1551;51.046;7.010;2023-04-22T15:11:49;99980.22;;;19.96;59.85
3082;BME280;1551;51.046;7.010;2023-04-22T15:14:38;99991.72;;;19.92;60.14
3082;BME280;1551;51.046;7.010;2023-04-22T15:17:27;99995.88;;;19.80;60.55
3082;BME280;1551;51.046;7.010;2023-04-22T15:20:18;99976.44;;;19.58;61.40
3082;BME280;1551;51.046;7.010;2023-04-22T15:23:07;99989.13;;;19.62;62.71